Time;durP1;ratioP1;P1;durP2;ratioP2;P2;SDS_P1;SDS_P2;PMS_P1;PMS_P2;Temp;Humidity;BMP_temperature;BMP_pressure;BME280_temperature;BME280_humidity;BME280_pressure;Samples;Min_cycle;Max_cycle;Signal;HPM_P1;HPM_P2
2023/03/31 00:00:59;;;;;;;1.60;1.15;;;;;;;5.78;100.00;97751.66;3225964;23;20020;-94
2023/03/31 00:02:14;;;;;;;0.80;0.80;;;;;;;5.73;100.00;97745.69;3225432;23;20483;-95
2023/03/31 00:03:32;;;;;;;0.40;0.40;;;;;;;5.82;100.00;97744.66;3225447;23;20024;-94
2023/03/31 00:04:58;;;;;;;0.28;0.28;;;;;;;6.08;100.00;97744.16;3226146;23;20089;-93
2023/03/31 00:06:18;;;;;;;0.17;0.17;;;;;;;5.95;100.00;97745.25;3225798;23;20415;-93
2023/03/31 00:07:36;;;;;;;0.00;0.00;;;;;;;5.85;100.00;97748.91;3209115;23;20024;-92
2023/03/31 00:08:52;;;;;;;1.58;1.20;;;;;;;5.86;100.00;97754.09;3216621;23;20066;-93
2023/03/31 00:10:09;;;;;;;0.00;0.00;;;;;;;5.97;100.00;97746.06;3209167;23;20413;-93
2023/03/31 00:11:25;;;;;;;0.10;0.10;;;;;;;6.02;100.00;97751.22;3216111;23;20048;-89
2023/03/31 00:12:40;;;;;;;0.40;0.40;;;;;;;6.14;100.00;97744.88;3225097;23;20020;-91
2023/03/31 00:13:56;;;;;;;2.63;2.50;;;;;;;6.05;100.00;97746.81;3225051;23;20223;-91
2023/03/31 00:15:12;;;;;;;1.23;1.23;;;;;;;6.05;100.00;97745.94;3226371;23;20017;-92
2023/03/31 00:16:27;;;;;;;1.25;1.20;;;;;;;6.00;100.00;97745.16;3226687;23;20418;-91
2023/03/31 00:17:43;;;;;;;2.00;1.83;;;;;;;5.86;100.00;97742.84;3227021;23;20035;-91
2023/03/31 00:19:00;;;;;;;0.00;0.00;;;;;;;5.90;100.00;97731.50;3226765;23;20399;-89
2023/03/31 00:20:16;;;;;;;0.30;0.30;;;;;;;5.91;100.00;97730.63;3228142;23;20498;-92
2023/03/31 00:21:35;;;;;;;1.42;1.17;;;;;;;5.69;100.00;97731.03;3228061;23;20020;-91
2023/03/31 00:22:53;;;;;;;0.20;0.20;;;;;;;5.60;100.00;97724.28;3228617;23;20027;-92
2023/03/31 00:24:11;;;;;;;0.35;0.30;;;;;;;5.67;100.00;97724.19;3228498;23;20027;-91
2023/03/31 00:25:27;;;;;;;0.05;0.05;;;;;;;5.80;100.00;97725.66;3228369;23;20097;-92
2023/03/31 00:26:43;;;;;;;2.75;1.45;;;;;;;5.75;100.00;97723.16;3227757;23;20020;-92
2023/03/31 00:27:59;;;;;;;0.00;0.00;;;;;;;5.89;100.00;97720.25;3228149;23;20031;-91
2023/03/31 00:29:14;;;;;;;0.00;0.00;;;;;;;5.92;100.00;97725.38;3227892;23;20043;-92
2023/03/31 00:30:30;;;;;;;0.00;0.00;;;;;;;5.99;100.00;97731.31;3227704;23;20027;-92
2023/03/31 00:31:46;;;;;;;0.00;0.00;;;;;;;5.90;100.00;97732.34;3227946;23;20027;-95
2023/03/31 00:33:01;;;;;;;0.00;0.00;;;;;;;5.97;100.00;97727.88;3212846;23;20021;-92
2023/03/31 00:34:17;;;;;;;0.10;0.10;;;;;;;6.03;100.00;97726.94;3219222;23;20020;-95
2023/03/31 00:35:37;;;;;;;0.38;0.38;;;;;;;6.11;100.00;97721.56;3229236;23;20066;-91
2023/03/31 00:36:55;;;;;;;0.38;0.38;;;;;;;6.09;100.00;97719.03;3230185;23;20028;-92
2023/03/31 00:38:12;;;;;;;0.20;0.20;;;;;;;6.02;100.00;97717.44;3230212;23;20408;-93
2023/03/31 00:39:32;;;;;;;0.95;0.75;;;;;;;6.07;100.00;97718.19;3228660;23;20048;-92
2023/03/31 00:40:48;;;;;;;0.08;0.08;;;;;;;6.05;100.00;97710.44;3230034;23;20027;-94
2023/03/31 00:42:04;;;;;;;0.00;0.00;;;;;;;6.01;100.00;97710.50;3228479;23;20453;-91
2023/03/31 00:43:31;;;;;;;0.00;0.00;;;;;;;6.18;100.00;97707.56;3229258;23;20031;-95
2023/03/31 00:45:12;;;;;;;0.08;0.08;;;;;;;6.29;100.00;97703.00;3228051;23;20024;-94
2023/03/31 00:46:35;;;;;;;0.35;0.35;;;;;;;6.32;100.00;97705.50;3228959;23;20047;-94
2023/03/31 00:47:56;;;;;;;1.77;0.95;;;;;;;6.37;100.00;97695.00;3212130;23;20021;-95
2023/03/31 00:49:35;;;;;;;0.10;0.10;;;;;;;6.41;100.00;97693.19;3222616;23;20076;-92
2023/03/31 00:50:56;;;;;;;0.00;0.00;;;;;;;6.29;100.00;97690.00;3213102;23;20055;-91
2023/03/31 00:52:20;;;;;;;0.10;0.10;;;;;;;6.33;100.00;97686.44;3228520;23;20066;-92
2023/03/31 00:53:36;;;;;;;0.00;0.00;;;;;;;6.44;100.00;97686.16;3230044;23;20087;-92
2023/03/31 00:55:00;;;;;;;0.35;0.35;;;;;;;6.50;100.00;97685.16;3229005;23;20215;-94
2023/03/31 00:56:16;;;;;;;0.30;0.30;;;;;;;5.92;100.00;97680.38;3229280;23;20020;-92
2023/03/31 00:57:38;;;;;;;0.45;0.45;;;;;;;6.16;100.00;97676.41;3229492;23;20017;-93
2023/03/31 00:59:00;;;;;;;3.05;0.68;;;;;;;6.20;100.00;97674.59;3228027;23;20016;-92
2023/03/31 01:00:16;;;;;;;0.00;0.00;;;;;;;5.81;100.00;97667.63;3229258;23;20459;-95
2023/03/31 01:01:34;;;;;;;0.00;0.00;;;;;;;5.45;100.00;97677.88;3227248;23;20621;-94
2023/03/31 01:02:57;;;;;;;0.10;0.10;;;;;;;5.64;100.00;97663.63;3229439;23;20059;-94
2023/03/31 01:04:15;;;;;;;2.30;2.17;;;;;;;5.48;100.00;97662.22;3229389;23;20599;-94
2023/03/31 01:05:54;;;;;;;0.00;0.00;;;;;;;5.53;100.00;97659.53;3228220;23;20035;-91
2023/03/31 01:07:15;;;;;;;0.30;0.30;;;;;;;5.97;100.00;97654.28;3228570;23;20036;-93
2023/03/31 01:08:35;;;;;;;0.00;0.00;;;;;;;6.22;100.00;97659.81;3230032;23;20030;-91
2023/03/31 01:09:53;;;;;;;0.00;0.00;;;;;;;5.97;100.00;97655.13;3228687;23;20083;-92
2023/03/31 01:11:15;;;;;;;0.10;0.10;;;;;;;5.75;100.00;97653.03;3228615;23;20379;-92
2023/03/31 01:12:32;;;;;;;0.15;0.15;;;;;;;5.94;100.00;97644.81;3229237;23;20452;-93
2023/03/31 01:13:51;;;;;;;0.00;0.00;;;;;;;5.46;100.00;97644.09;3228169;23;20039;-93
2023/03/31 01:15:08;;;;;;;0.38;0.38;;;;;;;5.45;100.00;97639.78;3227746;23;20051;-92
2023/03/31 01:16:23;;;;;;;0.75;0.75;;;;;;;5.54;100.00;97638.75;3227660;23;20070;-92
2023/03/31 01:17:43;;;;;;;0.00;0.00;;;;;;;5.55;100.00;97632.66;3228486;23;20020;-92
2023/03/31 01:18:59;;;;;;;0.00;0.00;;;;;;;5.88;100.00;97629.38;3228716;23;20044;-89
2023/03/31 01:20:40;;;;;;;0.00;0.00;;;;;;;5.83;100.00;97629.47;3225859;23;20344;-91
2023/03/31 01:22:02;;;;;;;0.00;0.00;;;;;;;6.30;100.00;97624.09;3226710;23;20452;-91
2023/03/31 01:23:30;;;;;;;0.00;0.00;;;;;;;5.88;100.00;97621.59;3228021;23;20043;-92
2023/03/31 01:25:08;;;;;;;0.00;0.00;;;;;;;5.74;100.00;97619.28;3227532;23;20026;-92
2023/03/31 01:26:42;;;;;;;0.00;0.00;;;;;;;5.79;100.00;97618.28;3226646;23;20020;-92
2023/03/31 01:28:04;;;;;;;0.47;0.47;;;;;;;5.67;100.00;97608.16;3225716;23;20020;-91
2023/03/31 01:29:41;;;;;;;0.00;0.00;;;;;;;5.84;100.00;97613.00;3226010;23;20043;-92
2023/03/31 01:31:28;;;;;;;0.00;0.00;;;;;;;5.76;100.00;97614.91;3225870;23;20024;-91
2023/03/31 01:33:16;;;;;;;0.00;0.00;;;;;;;5.75;100.00;97608.88;3209274;23;20036;-91
2023/03/31 01:35:02;;;;;;;0.00;0.00;;;;;;;6.48;100.00;97611.53;3223141;23;20027;-90
2023/03/31 01:36:52;;;;;;;0.00;0.00;;;;;;;6.06;100.00;97607.31;3225895;23;20027;-91
2023/03/31 01:38:43;;;;;;;0.00;0.00;;;;;;;5.99;100.00;97610.94;3225876;23;20043;-92
2023/03/31 01:40:11;;;;;;;0.00;0.00;;;;;;;5.89;100.00;97599.91;3177984;23;20053;-91
2023/03/31 01:41:47;;;;;;;0.00;0.00;;;;;;;6.15;100.00;97606.28;3177539;23;20029;-91
2023/03/31 01:43:25;;;;;;;0.00;0.00;;;;;;;5.81;100.00;97594.88;3225991;23;20662;-91
2023/03/31 01:45:00;;;;;;;0.00;0.00;;;;;;;6.28;100.00;97602.47;3227120;23;20024;-91
2023/03/31 01:46:27;;;;;;;0.00;0.00;;;;;;;6.06;100.00;97597.81;3225550;23;20448;-88
2023/03/31 01:47:46;;;;;;;0.00;0.00;;;;;;;5.84;100.00;97592.22;3226501;23;20023;-89
2023/03/31 01:49:28;;;;;;;0.10;0.10;;;;;;;6.40;100.00;97600.47;3225354;23;20017;-89
2023/03/31 01:51:01;;;;;;;0.00;0.00;;;;;;;6.65;100.00;97598.13;3225214;23;20330;-90
2023/03/31 01:52:23;;;;;;;;;;;;;;;6.47;100.00;97594.25;3225749;23;20071;-90
2023/03/31 01:53:50;;;;;;;0.00;0.00;;;;;;;6.61;100.00;97596.47;3224664;23;20359;-89
2023/03/31 01:55:12;;;;;;;0.20;0.20;;;;;;;6.41;100.00;97596.97;3225271;23;20024;-91
2023/03/31 01:56:37;;;;;;;0.00;0.00;;;;;;;6.59;100.00;97596.53;3225014;23;20024;-90
2023/03/31 01:57:59;;;;;;;0.10;0.10;;;;;;;6.60;100.00;97589.56;3225675;23;20020;-90
2023/03/31 01:59:26;;;;;;;0.17;0.17;;;;;;;6.53;100.00;97581.06;3224920;23;20024;-90
2023/03/31 02:00:50;;;;;;;0.00;0.00;;;;;;;6.47;100.00;97582.06;3226260;23;20020;-91
2023/03/31 02:02:27;;;;;;;0.05;0.05;;;;;;;6.72;100.00;97573.63;3225150;23;20436;-89
2023/03/31 02:03:57;;;;;;;0.00;0.00;;;;;;;6.83;100.00;97562.94;3209262;23;20367;-90
2023/03/31 02:05:17;;;;;;;0.10;0.10;;;;;;;6.81;100.00;97561.28;3218394;23;20047;-91
2023/03/31 02:06:39;;;;;;;0.00;0.00;;;;;;;6.82;100.00;97561.22;3226136;23;20076;-92
2023/03/31 02:08:01;;;;;;;0.30;0.30;;;;;;;6.47;100.00;97568.22;3209343;23;20020;-92
2023/03/31 02:09:26;;;;;;;0.00;0.00;;;;;;;6.54;100.00;97558.53;3217771;23;20024;-92
2023/03/31 02:10:44;;;;;;;2.53;2.00;;;;;;;6.34;100.00;97571.13;3225264;23;20456;-92
2023/03/31 02:12:04;;;;;;;0.10;0.10;;;;;;;6.53;100.00;97568.06;3227175;23;20016;-92
2023/03/31 02:13:22;;;;;;;0.65;0.65;;;;;;;6.20;100.00;97562.84;3226173;23;20040;-91
2023/03/31 02:14:42;;;;;;;0.00;0.00;;;;;;;6.30;100.00;97571.25;3226590;23;20024;-91
2023/03/31 02:16:02;;;;;;;0.00;0.00;;;;;;;6.21;100.00;97569.72;3226097;23;20028;-92
2023/03/31 02:17:21;;;;;;;0.00;0.00;;;;;;;6.19;100.00;97572.34;3225324;23;20479;-91
2023/03/31 02:18:40;;;;;;;0.00;0.00;;;;;;;6.28;100.00;97573.03;3224803;23;20020;-91
2023/03/31 02:20:00;;;;;;;0.15;0.08;;;;;;;6.16;100.00;97575.03;3225970;23;20024;-90
2023/03/31 02:21:16;;;;;;;0.00;0.00;;;;;;;6.29;100.00;97572.16;3224524;23;20452;-90
2023/03/31 02:22:36;;;;;;;0.00;0.00;;;;;;;6.39;100.00;97567.56;3225025;23;20024;-90
2023/03/31 02:23:51;;;;;;;0.35;0.30;;;;;;;6.42;100.00;97573.53;3224654;23;20376;-91
2023/03/31 02:25:11;;;;;;;3.70;1.13;;;;;;;6.20;100.00;97568.88;3225133;23;20047;-91
2023/03/31 02:26:32;;;;;;;0.60;0.60;;;;;;;5.79;100.00;97565.47;3224353;23;20051;-91
2023/03/31 02:28:02;;;;;;;0.08;0.08;;;;;;;5.57;100.00;97568.56;3225486;23;20048;-91
2023/03/31 02:29:19;;;;;;;0.08;0.08;;;;;;;5.43;100.00;97568.00;3224416;23;20455;-92
2023/03/31 02:30:47;;;;;;;0.03;0.03;;;;;;;5.36;100.00;97565.53;3225015;23;20023;-91
2023/03/31 02:32:19;;;;;;;0.38;0.38;;;;;;;5.87;100.00;97567.91;3225040;23;20059;-90
2023/03/31 02:33:35;;;;;;;0.17;0.17;;;;;;;6.02;100.00;97570.19;3225734;23;20099;-90
2023/03/31 02:34:51;;;;;;;0.00;0.00;;;;;;;6.11;100.00;97563.03;3225129;23;20352;-90
2023/03/31 02:36:07;;;;;;;0.47;0.47;;;;;;;5.87;100.00;97560.13;3224206;23;20021;-90
2023/03/31 02:37:24;;;;;;;0.10;0.10;;;;;;;5.84;100.00;97561.03;3225239;23;20024;-91
2023/03/31 02:38:46;;;;;;;0.10;0.10;;;;;;;5.99;100.00;97558.97;3224464;23;20115;-91
2023/03/31 02:40:09;;;;;;;0.00;0.00;;;;;;;5.82;100.00;97562.81;3209893;23;20095;-91
2023/03/31 02:41:25;;;;;;;0.00;0.00;;;;;;;6.08;100.00;97556.19;3215947;23;20035;-91
2023/03/31 02:42:41;;;;;;;0.00;0.00;;;;;;;6.08;100.00;97553.59;3226072;23;20020;-91
2023/03/31 02:43:57;;;;;;;0.00;0.00;;;;;;;6.05;100.00;97554.50;3224659;23;20474;-92
2023/03/31 02:45:39;;;;;;;0.28;0.28;;;;;;;6.09;100.00;97550.09;3207942;23;20082;-91
2023/03/31 02:46:54;;;;;;;0.15;0.15;;;;;;;6.07;100.00;97559.66;3220715;23;20455;-91
2023/03/31 02:48:25;;;;;;;0.00;0.00;;;;;;;5.92;100.00;97553.06;3209948;23;20513;-92
2023/03/31 02:49:46;;;;;;;0.10;0.10;;;;;;;5.81;100.00;97548.13;3218623;23;20095;-92
2023/03/31 02:51:07;;;;;;;0.00;0.00;;;;;;;5.87;100.00;97545.38;3226355;23;20024;-92
2023/03/31 02:52:32;;;;;;;1.20;0.05;;;;;;;5.92;100.00;97546.09;3225990;23;20050;-92
2023/03/31 02:54:06;;;;;;;0.00;0.00;;;;;;;6.01;100.00;97545.09;3226101;23;20083;-92
2023/03/31 02:55:50;;;;;;;0.00;0.00;;;;;;;5.86;100.00;97548.88;3226786;23;20020;-92
2023/03/31 02:57:27;;;;;;;0.00;0.00;;;;;;;5.93;100.00;97544.38;3224990;23;20474;-90
2023/03/31 02:59:09;;;;;;;1.23;0.93;;;;;;;5.91;100.00;97548.75;3225764;23;20040;-92
2023/03/31 03:00:42;;;;;;;0.35;0.35;;;;;;;6.07;100.00;97547.53;3210589;23;20025;-92
2023/03/31 03:02:11;;;;;;;0.38;0.38;;;;;;;5.97;100.00;97539.97;3220920;23;20070;-93
2023/03/31 03:03:45;;;;;;;0.00;0.00;;;;;;;5.83;100.00;97529.91;3226604;23;20027;-92
2023/03/31 03:05:07;;;;;;;0.00;0.00;;;;;;;5.85;100.00;97535.91;3228012;23;20534;-93
2023/03/31 03:06:36;;;;;;;0.00;0.00;;;;;;;5.80;100.00;97534.28;3227260;23;20031;-95
2023/03/31 03:08:13;;;;;;;0.00;0.00;;;;;;;5.96;100.00;97527.88;3225633;23;20130;-91
2023/03/31 03:09:35;;;;;;;0.52;0.52;;;;;;;5.79;100.00;97523.91;3227570;23;20051;-93
2023/03/31 03:10:56;;;;;;;0.00;0.00;;;;;;;5.42;100.00;97527.38;3226115;23;20023;-92
2023/03/31 03:12:21;;;;;;;0.32;0.32;;;;;;;5.62;100.00;97524.31;3227642;23;20081;-92
2023/03/31 03:13:42;;;;;;;0.05;0.05;;;;;;;5.86;100.00;97524.63;3209173;23;20123;-91
2023/03/31 03:15:06;;;;;;;0.22;0.08;;;;;;;5.55;100.00;97522.75;3218081;23;20074;-93
2023/03/31 03:16:31;;;;;;;0.00;0.00;;;;;;;5.14;100.00;97521.00;3225559;23;20071;-94
2023/03/31 03:17:48;;;;;;;1.55;0.30;;;;;;;5.57;100.00;97520.97;3226579;23;20050;-92
2023/03/31 03:19:06;;;;;;;0.00;0.00;;;;;;;5.80;100.00;97523.88;3226764;23;20356;-91
2023/03/31 03:20:22;;;;;;;0.10;0.10;;;;;;;6.03;100.00;97519.06;3227235;23;20040;-90
2023/03/31 03:21:37;;;;;;;1.33;1.27;;;;;;;5.86;100.00;97519.44;3227657;23;20024;-93
2023/03/31 03:22:53;;;;;;;0.00;0.00;;;;;;;5.42;100.00;97515.22;3227669;23;20214;-92
2023/03/31 03:24:08;;;;;;;0.00;0.00;;;;;;;5.70;100.00;97512.00;3226464;23;20050;-92
2023/03/31 03:25:24;;;;;;;0.00;0.00;;;;;;;6.04;100.00;97507.78;3225685;23;20024;-92
2023/03/31 03:26:40;;;;;;;0.00;0.00;;;;;;;5.79;100.00;97510.91;3227213;23;20024;-93
2023/03/31 03:27:55;;;;;;;0.00;0.00;;;;;;;5.96;100.00;97505.34;3229101;23;20027;-93
2023/03/31 03:29:14;;;;;;;0.00;0.00;;;;;;;6.00;100.00;97504.34;3225437;23;20027;-91
2023/03/31 03:30:30;;;;;;;1.40;1.27;;;;;;;5.49;100.00;97506.44;3209422;23;20017;-94
2023/03/31 03:31:45;;;;;;;0.00;0.00;;;;;;;5.49;100.00;97501.22;3216029;23;20356;-89
2023/03/31 03:33:02;;;;;;;0.00;0.00;;;;;;;5.91;100.00;97497.63;3225187;23;20020;-90
2023/03/31 03:34:18;;;;;;;0.00;0.00;;;;;;;5.82;100.00;97494.41;3225086;23;20326;-88
2023/03/31 03:35:35;;;;;;;0.00;0.00;;;;;;;5.90;100.00;97497.69;3225029;23;20059;-90
2023/03/31 03:36:50;;;;;;;0.25;0.25;;;;;;;5.77;100.00;97492.81;3224628;23;20028;-90
2023/03/31 03:38:06;;;;;;;0.30;0.30;;;;;;;5.99;100.00;97488.81;3224528;23;20027;-87
2023/03/31 03:39:22;;;;;;;2.38;0.25;;;;;;;5.83;100.00;97483.13;3224897;23;20079;-89
2023/03/31 03:40:37;;;;;;;0.10;0.10;;;;;;;6.21;100.00;97489.16;3224090;23;20026;-90
2023/03/31 03:41:53;;;;;;;0.68;0.68;;;;;;;5.93;100.00;97476.84;3224764;23;20078;-88
2023/03/31 03:43:08;;;;;;;0.57;0.47;;;;;;;5.98;100.00;97485.34;3224353;23;20028;-91
2023/03/31 03:44:24;;;;;;;0.30;0.30;;;;;;;6.24;100.00;97476.06;3225202;23;20459;-89
2023/03/31 03:45:39;;;;;;;0.63;0.63;;;;;;;6.31;100.00;97485.44;3224279;23;20020;-92
2023/03/31 03:46:55;;;;;;;0.45;0.45;;;;;;;6.32;100.00;97475.88;3225356;23;20107;-91
2023/03/31 03:48:11;;;;;;;0.00;0.00;;;;;;;6.10;100.00;97476.44;3225317;23;20016;-87
2023/03/31 03:49:26;;;;;;;0.10;0.10;;;;;;;5.73;100.00;97469.53;3224451;23;20039;-90
2023/03/31 03:50:43;;;;;;;0.25;0.25;;;;;;;5.82;100.00;97468.44;3207778;23;20024;-88
2023/03/31 03:51:59;;;;;;;0.00;0.00;;;;;;;5.89;100.00;97465.66;3199271;23;20504;-89
2023/03/31 03:53:14;;;;;;;0.00;0.00;;;;;;;6.39;100.00;97456.63;3214881;23;20020;-90
2023/03/31 03:54:30;;;;;;;3.03;1.00;;;;;;;6.57;100.00;97462.22;3226823;23;20020;-88
2023/03/31 03:55:48;;;;;;;0.40;0.40;;;;;;;6.35;100.00;97448.06;3225836;23;20019;-89
2023/03/31 03:57:05;;;;;;;0.00;0.00;;;;;;;6.33;100.00;97454.19;3225976;23;20095;-91
2023/03/31 03:58:21;;;;;;;0.00;0.00;;;;;;;6.73;100.00;97447.03;3225360;23;20122;-92
2023/03/31 03:59:36;;;;;;;0.00;0.00;;;;;;;6.97;100.00;97449.81;3225524;23;20035;-87
2023/03/31 04:00:52;;;;;;;0.00;0.00;;;;;;;6.99;100.00;97448.03;3224996;23;20028;-88
2023/03/31 04:02:08;;;;;;;0.00;0.00;;;;;;;6.95;100.00;97434.25;3225709;23;20023;-92
2023/03/31 04:03:23;;;;;;;0.00;0.00;;;;;;;6.57;100.00;97438.81;3225558;23;20707;-90
2023/03/31 04:04:39;;;;;;;0.00;0.00;;;;;;;6.60;100.00;97430.91;3225252;23;20031;-91
2023/03/31 04:05:54;;;;;;;0.03;0.03;;;;;;;6.14;100.00;97439.09;3226280;23;20024;-88
2023/03/31 04:07:10;;;;;;;0.00;0.00;;;;;;;6.50;100.00;97430.31;3226185;23;20020;-92
2023/03/31 04:08:26;;;;;;;0.00;0.00;;;;;;;6.70;100.00;97429.75;3226119;23;20360;-89
2023/03/31 04:09:41;;;;;;;0.10;0.10;;;;;;;6.87;100.00;97429.28;3226048;23;20023;-90
2023/03/31 04:10:57;;;;;;;0.00;0.00;;;;;;;7.04;100.00;97431.38;3210028;23;20033;-90
2023/03/31 04:12:12;;;;;;;0.00;0.00;;;;;;;7.11;100.00;97426.00;3215174;23;20074;-90
2023/03/31 04:13:28;;;;;;;0.00;0.00;;;;;;;7.30;100.00;97428.88;3225683;23;20026;-90
2023/03/31 04:14:44;;;;;;;0.00;0.00;;;;;;;7.30;100.00;97427.13;3226112;23;20016;-89
2023/03/31 04:15:59;;;;;;;0.10;0.10;;;;;;;7.16;100.00;97430.16;3225751;23;20020;-90
2023/03/31 04:17:15;;;;;;;1.55;1.45;;;;;;;7.15;100.00;97428.47;3225231;23;20356;-87
2023/03/31 04:18:30;;;;;;;0.00;0.00;;;;;;;7.15;100.00;97435.41;3226289;23;20047;-89
2023/03/31 04:19:49;;;;;;;0.25;0.25;;;;;;;7.06;100.00;97434.78;3209344;23;20076;-89
2023/03/31 04:21:05;;;;;;;0.75;0.75;;;;;;;6.90;100.00;97430.91;3216566;23;20024;-90
2023/03/31 04:22:20;;;;;;;1.17;0.80;;;;;;;6.85;100.00;97425.88;3225274;23;20457;-92
2023/03/31 04:23:37;;;;;;;0.00;0.00;;;;;;;6.78;100.00;97424.34;3225754;23;20054;-89
2023/03/31 04:24:57;;;;;;;0.20;0.20;;;;;;;6.75;100.00;97420.06;3225290;23;20043;-92
2023/03/31 04:26:17;;;;;;;0.10;0.10;;;;;;;6.84;100.00;97423.31;3209189;23;20021;-89
2023/03/31 04:27:33;;;;;;;0.00;0.00;;;;;;;6.97;100.00;97421.19;3216423;23;20024;-89
2023/03/31 04:28:49;;;;;;;0.10;0.10;;;;;;;6.74;100.00;97414.94;3227074;23;20027;-92
2023/03/31 04:30:07;;;;;;;0.25;0.25;;;;;;;6.97;100.00;97422.06;3225759;23;20024;-90
2023/03/31 04:31:26;;;;;;;0.10;0.10;;;;;;;7.10;100.00;97416.47;3227761;23;20039;-95
2023/03/31 04:32:41;;;;;;;0.10;0.10;;;;;;;6.88;100.00;97417.09;3226555;23;20322;-94
2023/03/31 04:34:01;;;;;;;0.47;0.32;;;;;;;6.82;100.00;97415.53;3226631;23;20058;-94
2023/03/31 04:35:17;;;;;;;2.42;2.28;;;;;;;6.63;100.00;97410.88;3225843;23;20478;-94
2023/03/31 04:36:32;;;;;;;0.10;0.10;;;;;;;6.60;100.00;97415.31;3226373;23;20032;-94
2023/03/31 04:37:51;;;;;;;0.60;0.60;;;;;;;6.53;100.00;97412.03;3225892;23;20024;-94
2023/03/31 04:39:11;;;;;;;0.60;0.50;;;;;;;6.55;100.00;97407.63;3226886;23;20024;-94
2023/03/31 04:40:27;;;;;;;0.00;0.00;;;;;;;6.63;100.00;97405.69;3225772;23;20111;-92
2023/03/31 04:41:43;;;;;;;0.30;0.30;;;;;;;6.74;100.00;97404.53;3225064;23;20031;-91
2023/03/31 04:42:59;;;;;;;0.75;0.75;;;;;;;6.80;100.00;97406.09;3225923;23;20035;-91
2023/03/31 04:44:14;;;;;;;0.25;0.25;;;;;;;6.95;100.00;97403.03;3225231;23;20407;-94
2023/03/31 04:45:30;;;;;;;0.30;0.22;;;;;;;6.82;100.00;97399.09;3226598;23;20016;-94
2023/03/31 04:46:46;;;;;;;2.85;0.90;;;;;;;6.80;100.00;97399.13;3225452;23;20047;-94
2023/03/31 04:48:01;;;;;;;0.00;0.00;;;;;;;6.88;100.00;97404.97;3226681;23;20082;-93
2023/03/31 04:49:17;;;;;;;2.40;0.52;;;;;;;6.99;100.00;97404.63;3226032;23;20031;-93
2023/03/31 04:50:33;;;;;;;0.00;0.00;;;;;;;7.00;100.00;97398.53;3226192;23;20420;-94
2023/03/31 04:51:48;;;;;;;0.28;0.28;;;;;;;7.01;100.00;97395.03;3225193;23;20020;-94
2023/03/31 04:53:05;;;;;;;0.43;0.43;;;;;;;7.00;100.00;97393.31;3225841;23;20103;-93
2023/03/31 04:54:21;;;;;;;2.92;0.95;;;;;;;7.12;100.00;97386.88;3209947;23;20472;-92
2023/03/31 04:55:39;;;;;;;0.20;0.20;;;;;;;7.15;100.00;97378.13;3200383;23;20021;-92
2023/03/31 04:56:55;;;;;;;0.10;0.10;;;;;;;7.14;100.00;97384.25;3215702;23;20110;-90
2023/03/31 04:58:11;;;;;;;0.00;0.00;;;;;;;7.37;100.00;97388.72;3225954;23;20432;-91
2023/03/31 04:59:26;;;;;;;0.22;0.22;;;;;;;7.62;100.00;97382.72;3225168;23;20024;-90
2023/03/31 05:00:42;;;;;;;0.00;0.00;;;;;;;7.88;100.00;97373.16;3209206;23;20025;-91
2023/03/31 05:01:57;;;;;;;0.22;0.22;;;;;;;7.83;100.00;97377.69;3215177;23;20158;-91
2023/03/31 05:03:13;;;;;;;0.28;0.28;;;;;;;7.61;100.00;97381.88;3226368;23;20020;-91
2023/03/31 05:04:29;;;;;;;0.15;0.10;;;;;;;7.31;100.00;97381.13;3225379;23;20020;-91
2023/03/31 05:05:44;;;;;;;0.25;0.25;;;;;;;7.27;100.00;97369.09;3225892;23;20046;-91
2023/03/31 05:07:00;;;;;;;0.75;0.32;;;;;;;7.31;100.00;97362.88;3225836;23;20023;-91
2023/03/31 05:08:15;;;;;;;0.30;0.30;;;;;;;7.33;100.00;97358.47;3225231;23;20024;-90
2023/03/31 05:09:31;;;;;;;6.40;0.73;;;;;;;7.66;100.00;97355.66;3225499;23;20024;-91
2023/03/31 05:10:47;;;;;;;0.63;0.35;;;;;;;7.83;100.00;97351.63;3225070;23;20031;-91
2023/03/31 05:12:02;;;;;;;0.00;0.00;;;;;;;8.02;100.00;97346.59;3225651;23;20024;-90
2023/03/31 05:13:18;;;;;;;2.90;0.45;;;;;;;8.06;100.00;97340.41;3225240;23;20150;-90
2023/03/31 05:14:33;;;;;;;0.00;0.00;;;;;;;8.01;100.00;97343.16;3226252;23;20024;-91
2023/03/31 05:15:49;;;;;;;1.60;0.30;;;;;;;8.08;100.00;97332.50;3225474;23;20020;-91
2023/03/31 05:17:05;;;;;;;0.45;0.45;;;;;;;8.04;100.00;97324.81;3225802;23;20411;-91
2023/03/31 05:18:20;;;;;;;0.20;0.20;;;;;;;8.04;100.00;97329.19;3225293;23;20027;-91
2023/03/31 05:19:36;;;;;;;0.70;0.22;;;;;;;7.98;100.00;97330.25;3226920;23;20020;-91
2023/03/31 05:20:52;;;;;;;0.00;0.00;;;;;;;8.00;100.00;97328.44;3225265;23;20030;-92
2023/03/31 05:22:07;;;;;;;0.08;0.08;;;;;;;7.87;100.00;97329.78;3226100;23;20031;-91
2023/03/31 05:23:22;;;;;;;0.00;0.00;;;;;;;7.94;100.00;97323.44;3225364;23;20031;-90
2023/03/31 05:24:38;;;;;;;0.10;0.10;;;;;;;7.86;100.00;97315.88;3226324;23;20074;-90
2023/03/31 05:25:54;;;;;;;0.00;0.00;;;;;;;7.77;100.00;97311.00;3225153;23;20024;-91
2023/03/31 05:27:10;;;;;;;0.00;0.00;;;;;;;7.74;100.00;97309.34;3226086;23;20020;-90
2023/03/31 05:28:25;;;;;;;0.00;0.00;;;;;;;7.70;100.00;97305.16;3225314;23;20024;-90
2023/03/31 05:29:41;;;;;;;0.00;0.00;;;;;;;7.77;100.00;97298.81;3225753;23;20020;-91
2023/03/31 05:31:00;;;;;;;0.57;0.38;;;;;;;7.70;100.00;97304.28;3225432;23;20016;-91
2023/03/31 05:32:15;;;;;;;0.00;0.00;;;;;;;7.78;100.00;97302.28;3226014;23;20036;-91
2023/03/31 05:33:32;;;;;;;0.00;0.00;;;;;;;7.94;100.00;97299.13;3225307;23;20054;-92
2023/03/31 05:34:48;;;;;;;0.00;0.00;;;;;;;7.88;100.00;97302.81;3225270;23;20364;-91
2023/03/31 05:36:04;;;;;;;0.00;0.00;;;;;;;8.29;100.00;97296.97;3225623;23;20094;-91
2023/03/31 05:37:20;;;;;;;0.00;0.00;;;;;;;8.57;100.00;97295.97;3208426;23;20028;-91
2023/03/31 05:38:35;;;;;;;0.00;0.00;;;;;;;8.82;100.00;97302.84;3216868;23;20019;-92
2023/03/31 05:39:51;;;;;;;0.45;0.45;;;;;;;9.14;100.00;97296.34;3224941;23;20031;-90
2023/03/31 05:41:08;;;;;;;0.05;0.05;;;;;;;9.35;100.00;97291.13;3225440;23;20043;-90
2023/03/31 05:42:23;;;;;;;0.80;0.50;;;;;;;9.24;100.00;97294.19;3225341;23;20024;-87
2023/03/31 05:43:39;;;;;;;0.10;0.10;;;;;;;9.36;100.00;97285.03;3224297;23;20016;-89
2023/03/31 05:44:56;;;;;;;0.43;0.35;;;;;;;9.10;100.00;97284.34;3224795;23;20539;-92
2023/03/31 05:46:11;;;;;;;0.30;0.30;;;;;;;9.13;100.00;97286.81;3224775;23;20048;-91
2023/03/31 05:47:27;;;;;;;0.63;0.63;;;;;;;9.10;100.00;97279.13;3209040;23;20033;-90
2023/03/31 05:48:43;;;;;;;0.35;0.35;;;;;;;9.07;100.00;97278.38;3199328;23;20031;-88
2023/03/31 05:49:59;;;;;;;0.17;0.17;;;;;;;9.30;100.00;97275.69;3214967;23;20026;-90
2023/03/31 05:51:15;;;;;;;0.30;0.30;;;;;;;9.42;100.00;97274.31;3225476;23;20767;-91
2023/03/31 05:52:31;;;;;;;0.15;0.15;;;;;;;9.38;100.00;97277.97;3225008;23;20027;-89
2023/03/31 05:53:47;;;;;;;3.22;2.80;;;;;;;9.26;100.00;97270.66;3225655;23;20525;-91
2023/03/31 05:55:03;;;;;;;2.10;1.02;;;;;;;9.41;100.00;97264.78;3224966;23;20074;-91
2023/03/31 05:56:19;;;;;;;5.28;3.60;;;;;;;9.40;100.00;97270.06;3225616;23;20074;-89
2023/03/31 05:57:34;;;;;;;2.45;1.77;;;;;;;9.16;100.00;97278.84;3207876;23;20028;-91
2023/03/31 05:58:51;;;;;;;0.68;0.65;;;;;;;9.25;100.00;97264.56;3216444;23;20464;-92
2023/03/31 06:00:09;;;;;;;2.90;2.63;;;;;;;9.18;100.00;97271.78;3224722;23;20103;-92
2023/03/31 06:01:24;;;;;;;0.25;0.25;;;;;;;9.30;100.00;97269.59;3226360;23;20413;-94
2023/03/31 06:02:40;;;;;;;0.28;0.20;;;;;;;9.52;100.00;97263.47;3224814;23;20074;-92
2023/03/31 06:03:56;;;;;;;0.45;0.45;;;;;;;9.68;100.00;97261.03;3224709;23;20020;-92
2023/03/31 06:05:11;;;;;;;0.00;0.00;;;;;;;9.83;100.00;97252.50;3225409;23;20019;-92
2023/03/31 06:06:27;;;;;;;0.38;0.38;;;;;;;10.07;100.00;97254.13;3225338;23;20023;-92
2023/03/31 06:07:43;;;;;;;0.00;0.00;;;;;;;10.33;100.00;97255.53;3225587;23;20400;-92
2023/03/31 06:08:58;;;;;;;5.68;1.02;;;;;;;10.39;100.00;97244.78;3224473;23;20087;-94
2023/03/31 06:10:14;;;;;;;0.40;0.40;;;;;;;10.65;100.00;97250.59;3226424;23;20020;-93
2023/03/31 06:11:30;;;;;;;0.17;0.17;;;;;;;10.73;100.00;97245.00;3224632;23;20127;-92
2023/03/31 06:12:45;;;;;;;0.57;0.57;;;;;;;10.34;100.00;97243.28;3225416;23;20024;-91
2023/03/31 06:14:01;;;;;;;0.10;0.10;;;;;;;10.38;100.00;97245.69;3208019;23;20353;-91
2023/03/31 06:15:16;;;;;;;0.70;0.70;;;;;;;10.57;100.00;97247.50;3215317;23;20024;-90
2023/03/31 06:16:32;;;;;;;2.00;1.77;;;;;;;10.66;100.00;97247.06;3224217;23;20074;-88